Time;durP1;ratioP1;P1;durP2;ratioP2;P2;SDS_P1;SDS_P2;PMS_P1;PMS_P2;Temp;Humidity;BMP_temperature;BMP_pressure;BME280_temperature;BME280_humidity;BME280_pressure;Samples;Min_cycle;Max_cycle;Signal;HPM_P1;HPM_P2
2022/03/16 00:00:00;;;;;;;;;;;;;;;-143.90;100.00;55276.03;2092054;28;19921;-62
2022/03/16 00:01:20;;;;;;;;;;;;;;;-143.90;100.00;55293.91;2092654;28;19963;-62
2022/03/16 00:02:41;;;;;;;;;;;;;;;-143.90;100.00;55272.06;2093247;28;19927;-62
2022/03/16 00:04:02;;;;;;;;;;;;;;;-143.90;100.00;55266.09;2092880;28;19921;-61
2022/03/16 00:05:23;;;;;;;;;;;;;;;-143.90;100.00;55293.91;2082730;28;19933;-63
2022/03/16 00:06:44;;;;;;;;;;;;;;;-143.90;100.00;55270.06;2088220;28;20031;-63
2022/03/16 00:08:04;;;;;;;;;;;;;;;-143.90;100.00;55254.19;2092571;28;20499;-64
2022/03/16 00:09:25;;;;;;;;;;;;;;;-143.90;100.00;55309.78;2092887;28;19920;-62
2022/03/16 00:10:46;;;;;;;;;;;;;;;-143.90;100.00;55305.81;2092820;28;19997;-62
2022/03/16 00:12:07;;;;;;;;;;;;;;;-143.90;100.00;55293.91;2083403;28;19959;-63
2022/03/16 00:13:28;;;;;;;;;;;;;;;-143.90;100.00;55281.97;2088006;28;19927;-62
2022/03/16 00:14:49;;;;;;;;;;;;;;;-143.90;100.00;55295.88;2090649;28;19928;-60
2022/03/16 00:16:10;;;;;;;;;;;;;;;-143.90;100.00;55297.88;2092631;28;20014;-63
2022/03/16 00:17:32;;;;;;;;;;;;;;;-143.90;100.00;55285.97;2093220;28;19920;-62
2022/03/16 00:18:53;;;;;;;;;;;;;;;-143.90;100.00;55254.19;2091842;28;19920;-63
2022/03/16 00:20:13;;;;;;;;;;;;;;;-143.90;100.00;55313.75;2091907;28;19930;-62
2022/03/16 00:21:34;;;;;;;;;;;;;;;-143.90;100.00;55230.34;2092358;28;19921;-63
2022/03/16 00:22:55;;;;;;;;;;;;;;;-143.90;100.00;55285.97;2091695;28;19924;-64
2022/03/16 00:24:16;;;;;;;;;;;;;;;-143.90;100.00;55287.94;2093208;28;19924;-63
2022/03/16 00:25:36;;;;;;;;;;;;;;;-143.90;100.00;55299.84;2092274;28;19924;-62
2022/03/16 00:26:57;;;;;;;;;;;;;;;-143.90;100.00;55291.91;2092104;28;20645;-63
2022/03/16 00:28:18;;;;;;;;;;;;;;;-143.90;100.00;55319.72;2092102;28;19925;-63
2022/03/16 00:29:39;;;;;;;;;;;;;;;-143.90;100.00;55283.97;2082684;28;19943;-64
2022/03/16 00:31:02;;;;;;;;;;;;;;;-143.90;100.00;55262.13;2086968;28;19971;-64
2022/03/16 00:32:22;;;;;;;;;;;;;;;-143.90;100.00;55325.66;2089644;28;19920;-63
2022/03/16 00:33:43;;;;;;;;;;;;;;;-143.90;100.00;55281.97;2093421;28;20031;-62
2022/03/16 00:35:04;;;;;;;;;;;;;;;-143.90;100.00;55303.81;2084651;28;20011;-63
2022/03/16 00:36:24;;;;;;;;;;;;;;;-143.90;100.00;55289.94;2087064;28;19933;-63
2022/03/16 00:37:46;;;;;;;;;;;;;;;-143.90;100.00;55276.03;2091437;28;19920;-64
2022/03/16 00:39:06;;;;;;;;;;;;;;;-143.90;100.00;55254.19;2090627;28;19968;-64
2022/03/16 00:40:28;;;;;;;;;;;;;;;-143.90;100.00;55278.00;2092288;28;19946;-64
2022/03/16 00:41:49;;;;;;;;;;;;;;;-143.90;100.00;55289.94;2084152;28;19920;-63
2022/03/16 00:43:10;;;;;;;;;;;;;;;-143.90;100.00;55313.75;2081279;28;19925;-62
2022/03/16 00:44:34;;;;;;;;;;;;;;;-143.90;100.00;55293.91;2088889;28;19985;-62
2022/03/16 00:45:55;;;;;;;;;;;;;;;-143.90;100.00;55272.06;2090763;28;19974;-63
2022/03/16 00:47:16;;;;;;;;;;;;;;;-143.90;100.00;55305.81;2091893;28;19959;-61
2022/03/16 00:48:37;;;;;;;;;;;;;;;-143.90;100.00;55266.09;2092038;28;20014;-62
2022/03/16 00:49:58;;;;;;;;;;;;;;;-143.90;100.00;55270.06;2094101;28;20027;-59
2022/03/16 00:51:19;;;;;;;;;;;;;;;-143.90;100.00;55285.97;2093979;28;20014;-61
2022/03/16 00:52:40;;;;;;;;;;;;;;;-143.90;100.00;55301.84;2084598;28;20003;-62
2022/03/16 00:54:01;;;;;;;;;;;;;;;-143.90;100.00;55313.75;2090196;28;19924;-63
2022/03/16 00:55:21;;;;;;;;;;;;;;;-143.90;100.00;55272.06;2083890;28;19932;-63
2022/03/16 00:56:42;;;;;;;;;;;;;;;-143.90;100.00;55281.97;2088237;28;19920;-61
2022/03/16 00:58:03;;;;;;;;;;;;;;;-143.90;100.00;55293.91;2093068;28;19929;-62
2022/03/16 00:59:23;;;;;;;;;;;;;;;-143.90;100.00;55262.13;2093996;28;20003;-61
2022/03/16 01:00:44;;;;;;;;;;;;;;;-143.90;100.00;55299.84;2093531;28;19930;-63
2022/03/16 01:02:05;;;;;;;;;;;;;;;-143.90;100.00;55280.00;2093042;28;19924;-62
2022/03/16 01:03:26;;;;;;;;;;;;;;;-143.90;100.00;55301.84;2093231;28;19966;-62
2022/03/16 01:04:47;;;;;;;;;;;;;;;-143.90;100.00;55272.06;2093962;28;20437;-62
2022/03/16 01:06:15;;;;;;;;;;;;;;;-143.90;100.00;55278.00;2093992;28;19928;-62
2022/03/16 01:07:36;;;;;;;;;;;;;;;-143.90;100.00;55285.97;2094787;28;19924;-61
2022/03/16 01:08:56;;;;;;;;;;;;;;;-143.90;100.00;55287.94;2083061;28;19928;-63
2022/03/16 01:10:17;;;;;;;;;;;;;;;-143.90;100.00;55266.09;2088718;28;19927;-61
2022/03/16 01:11:38;;;;;;;;;;;;;;;-143.90;100.00;55250.22;2093425;28;19925;-62
2022/03/16 01:12:58;;;;;;;;;;;;;;;-143.90;100.00;55293.91;2084516;28;19920;-62
2022/03/16 01:14:19;;;;;;;;;;;;;;;-143.90;100.00;55266.09;2089782;28;19924;-59
2022/03/16 01:15:40;;;;;;;;;;;;;;;-143.90;100.00;55281.97;2094805;28;20027;-61
2022/03/16 01:17:03;;;;;;;;;;;;;;;-143.90;100.00;55297.88;2092607;28;20449;-63
2022/03/16 01:18:25;;;;;;;;;;;;;;;-143.90;100.00;55301.84;2092586;28;19970;-60
2022/03/16 01:19:46;;;;;;;;;;;;;;;-143.90;100.00;55276.03;2083438;28;19921;-62
2022/03/16 01:21:08;;;;;;;;;;;;;;;-143.90;100.00;55258.16;2084896;28;20387;-62
2022/03/16 01:22:28;;;;;;;;;;;;;;;-143.90;100.00;55301.84;2089029;28;19921;-61
2022/03/16 01:23:49;;;;;;;;;;;;;;;-143.90;100.00;55262.13;2093163;28;19920;-62
2022/03/16 01:25:11;;;;;;;;;;;;;;;-143.90;100.00;55309.78;2084119;28;19921;-62
2022/03/16 01:26:33;;;;;;;;;;;;;;;-143.90;100.00;55270.06;2089752;28;19970;-62
2022/03/16 01:27:54;;;;;;;;;;;;;;;-143.90;100.00;55281.97;2082573;28;19920;-62
2022/03/16 01:29:17;;;;;;;;;;;;;;;-143.90;100.00;55311.78;2090294;28;19958;-61
2022/03/16 01:30:37;;;;;;;;;;;;;;;-143.90;100.00;55301.84;2083111;28;20514;-62
2022/03/16 01:31:58;;;;;;;;;;;;;;;-143.90;100.00;55262.13;2080765;28;19920;-61
2022/03/16 01:33:19;;;;;;;;;;;;;;;-143.90;100.00;55266.09;2078126;28;19925;-62
2022/03/16 01:34:41;;;;;;;;;;;;;;;-143.90;100.00;55291.91;2082726;28;20007;-61
2022/03/16 01:36:02;;;;;;;;;;;;;;;-143.90;100.00;55321.69;2080417;28;19925;-63
2022/03/16 01:37:23;;;;;;;;;;;;;;;-143.90;100.00;55266.09;2089725;28;19921;-61
2022/03/16 01:38:44;;;;;;;;;;;;;;;-143.90;100.00;55272.06;2094105;28;20081;-62
2022/03/16 01:40:06;;;;;;;;;;;;;;;-143.90;100.00;55285.97;2092659;28;19924;-63
2022/03/16 01:41:26;;;;;;;;;;;;;;;-143.90;100.00;55280.00;2091696;28;19978;-62
2022/03/16 01:42:47;;;;;;;;;;;;;;;-143.90;100.00;55293.91;2092276;28;19920;-63
2022/03/16 01:44:08;;;;;;;;;;;;;;;-143.90;100.00;55289.94;2093781;28;19925;-63
2022/03/16 01:45:29;;;;;;;;;;;;;;;-143.90;100.00;55287.94;2092641;28;20020;-63
2022/03/16 01:46:49;;;;;;;;;;;;;;;-143.90;100.00;55289.94;2094465;28;20324;-63
2022/03/16 01:48:10;;;;;;;;;;;;;;;-143.90;100.00;55297.88;2094039;28;20390;-63
2022/03/16 01:49:31;;;;;;;;;;;;;;;-143.90;100.00;55280.00;2092518;28;19921;-60
2022/03/16 01:50:51;;;;;;;;;;;;;;;-143.90;100.00;55295.88;2084539;28;19967;-62
2022/03/16 01:52:17;;;;;;;;;;;;;;;-143.90;100.00;55283.97;2088654;28;19966;-62
2022/03/16 01:53:40;;;;;;;;;;;;;;;-143.90;100.00;55305.81;2088949;28;19959;-60
2022/03/16 01:55:04;;;;;;;;;;;;;;;-143.90;100.00;55333.63;2084224;28;19967;-63
2022/03/16 01:56:25;;;;;;;;;;;;;;;-143.90;100.00;55262.13;2079884;28;19928;-62
2022/03/16 01:57:47;;;;;;;;;;;;;;;-143.90;100.00;55321.69;2080629;28;20011;-62
2022/03/16 01:59:08;;;;;;;;;;;;;;;-143.90;100.00;55270.06;2088705;28;19963;-62
2022/03/16 02:00:29;;;;;;;;;;;;;;;-143.90;100.00;55264.13;2075486;28;19948;-63
2022/03/16 02:01:49;;;;;;;;;;;;;;;-143.90;100.00;55266.09;2080099;28;19982;-61
2022/03/16 02:03:11;;;;;;;;;;;;;;;-143.90;100.00;55258.16;2090160;28;19920;-60
2022/03/16 02:04:32;;;;;;;;;;;;;;;-143.90;100.00;55278.00;2083474;28;19921;-62
2022/03/16 02:05:52;;;;;;;;;;;;;;;-143.90;100.00;55238.31;2088501;28;19924;-62
2022/03/16 02:07:13;;;;;;;;;;;;;;;-143.90;100.00;55285.97;2093077;28;19921;-62
2022/03/16 02:08:35;;;;;;;;;;;;;;;-143.90;100.00;55281.97;2085429;28;19932;-61
2022/03/16 02:09:57;;;;;;;;;;;;;;;-143.90;100.00;55278.00;2089006;28;19924;-63
2022/03/16 02:11:17;;;;;;;;;;;;;;;-143.90;100.00;55293.91;2083284;28;19931;-63
2022/03/16 02:12:45;;;;;;;;;;;;;;;-143.90;100.00;55262.13;2089665;28;20467;-60
2022/03/16 02:14:06;;;;;;;;;;;;;;;-143.90;100.00;55270.06;2083954;28;20390;-63
2022/03/16 02:15:26;;;;;;;;;;;;;;;-143.90;100.00;55262.13;2090507;28;19920;-62
2022/03/16 02:16:47;;;;;;;;;;;;;;;-143.90;100.00;55285.97;2092401;28;20018;-63
2022/03/16 02:18:08;;;;;;;;;;;;;;;-143.90;100.00;55270.06;2091834;28;20007;-62
2022/03/16 02:19:29;;;;;;;;;;;;;;;-143.90;100.00;55266.09;2092989;28;19920;-61
2022/03/16 02:20:50;;;;;;;;;;;;;;;-143.90;100.00;55278.00;2093526;28;19993;-64
2022/03/16 02:22:13;;;;;;;;;;;;;;;-143.90;100.00;55293.91;2093603;28;19920;-62
2022/03/16 02:23:34;;;;;;;;;;;;;;;-143.90;100.00;55262.13;2091217;28;19920;-62
2022/03/16 02:24:55;;;;;;;;;;;;;;;-143.90;100.00;55281.97;2092167;28;20391;-58
2022/03/16 02:26:16;;;;;;;;;;;;;;;-143.90;100.00;55274.03;2092072;28;20019;-61
2022/03/16 02:27:37;;;;;;;;;;;;;;;-143.90;100.00;55236.31;2093413;28;19974;-60
2022/03/16 02:28:58;;;;;;;;;;;;;;;-143.90;100.00;55262.13;2093289;28;19973;-62
2022/03/16 02:30:20;;;;;;;;;;;;;;;-143.90;100.00;55266.09;2093633;28;19920;-63
2022/03/16 02:31:40;;;;;;;;;;;;;;;-143.90;100.00;55305.81;2093662;28;20432;-62
2022/03/16 02:33:01;;;;;;;;;;;;;;;-143.90;100.00;55266.09;2093302;28;19967;-60
2022/03/16 02:34:22;;;;;;;;;;;;;;;-143.90;100.00;55252.19;2092332;28;19920;-62
2022/03/16 02:35:43;;;;;;;;;;;;;;;-143.90;100.00;55309.78;2092194;28;19932;-62
2022/03/16 02:37:03;;;;;;;;;;;;;;;-143.90;100.00;55276.03;2093805;28;19920;-62
2022/03/16 02:38:24;;;;;;;;;;;;;;;-143.90;100.00;55254.19;2093030;28;20040;-62
2022/03/16 02:39:46;;;;;;;;;;;;;;;-143.90;100.00;55281.97;2093590;28;19970;-61
2022/03/16 02:41:07;;;;;;;;;;;;;;;-143.90;100.00;55293.91;2091885;28;19927;-61
2022/03/16 02:42:28;;;;;;;;;;;;;;;-143.90;100.00;55250.22;2093408;28;19931;-62
2022/03/16 02:43:48;;;;;;;;;;;;;;;-143.90;100.00;55281.97;2093225;28;19927;-62
2022/03/16 02:45:09;;;;;;;;;;;;;;;-143.90;100.00;55287.94;2092992;28;19928;-61
2022/03/16 02:46:30;;;;;;;;;;;;;;;-143.90;100.00;55262.13;2094168;28;19920;-62
2022/03/16 02:47:50;;;;;;;;;;;;;;;-143.90;100.00;55293.91;2092201;28;19960;-62
2022/03/16 02:49:11;;;;;;;;;;;;;;;-143.90;100.00;55299.84;2093063;28;19927;-62
2022/03/16 02:50:32;;;;;;;;;;;;;;;-143.90;100.00;55283.97;2093323;28;19920;-61
2022/03/16 02:51:52;;;;;;;;;;;;;;;-143.90;100.00;55313.75;2092793;28;20443;-62
2022/03/16 02:53:14;;;;;;;;;;;;;;;-143.90;100.00;55262.13;2092453;28;20010;-60
2022/03/16 02:54:35;;;;;;;;;;;;;;;-143.90;100.00;55291.91;2094224;28;20773;-62
2022/03/16 02:55:56;;;;;;;;;;;;;;;-143.90;100.00;55285.97;2091518;28;19946;-63
2022/03/16 02:57:16;;;;;;;;;;;;;;;-143.90;100.00;55272.06;2092897;28;20054;-59
2022/03/16 02:58:37;;;;;;;;;;;;;;;-143.90;100.00;55297.88;2092828;28;20001;-62
2022/03/16 02:59:57;;;;;;;;;;;;;;;-143.90;100.00;55321.69;2093002;28;19924;-62
2022/03/16 03:01:18;;;;;;;;;;;;;;;-143.90;100.00;55270.06;2090559;28;21606;-62
2022/03/16 03:02:41;;;;;;;;;;;;;;;-143.90;100.00;55278.00;2093885;28;19920;-62
2022/03/16 03:04:01;;;;;;;;;;;;;;;-143.90;100.00;55297.88;2092231;28;20040;-63
2022/03/16 03:05:22;;;;;;;;;;;;;;;-143.90;100.00;55293.91;2092061;28;19930;-62
2022/03/16 03:06:43;;;;;;;;;;;;;;;-143.90;100.00;55291.91;2092387;28;19924;-61
2022/03/16 03:08:04;;;;;;;;;;;;;;;-143.90;100.00;55305.81;2092619;28;20041;-61
2022/03/16 03:09:25;;;;;;;;;;;;;;;-143.90;100.00;55293.91;2093468;28;19920;-62
2022/03/16 03:10:46;;;;;;;;;;;;;;;-143.90;100.00;55307.78;2093745;28;21301;-62
2022/03/16 03:12:07;;;;;;;;;;;;;;;-143.90;100.00;55309.78;2093156;28;19949;-62
2022/03/16 03:13:27;;;;;;;;;;;;;;;-143.90;100.00;55295.88;2093333;28;20335;-63
2022/03/16 03:14:48;;;;;;;;;;;;;;;-143.90;100.00;55305.81;2092127;28;19924;-63
2022/03/16 03:16:09;;;;;;;;;;;;;;;-143.90;100.00;55281.97;2093342;28;20311;-62
2022/03/16 03:17:29;;;;;;;;;;;;;;;-143.90;100.00;55301.84;2094106;28;20038;-61
2022/03/16 03:18:50;;;;;;;;;;;;;;;-143.90;100.00;55281.97;2094475;28;20288;-61
2022/03/16 03:20:11;;;;;;;;;;;;;;;-143.90;100.00;55299.84;2091890;28;19921;-63
2022/03/16 03:21:32;;;;;;;;;;;;;;;-143.90;100.00;55297.88;2093848;28;19970;-62
2022/03/16 03:22:53;;;;;;;;;;;;;;;-143.90;100.00;55258.16;2093334;28;19926;-62
2022/03/16 03:24:13;;;;;;;;;;;;;;;-143.90;100.00;55278.00;2093137;28;19935;-63
2022/03/16 03:25:34;;;;;;;;;;;;;;;-143.90;100.00;55289.94;2093095;28;19920;-62
2022/03/16 03:26:55;;;;;;;;;;;;;;;-143.90;100.00;55285.97;2093093;28;20011;-62
2022/03/16 03:28:16;;;;;;;;;;;;;;;-143.90;100.00;55262.13;2092485;28;19927;-61
2022/03/16 03:29:37;;;;;;;;;;;;;;;-143.90;100.00;55266.09;2093314;28;20003;-62
2022/03/16 03:30:57;;;;;;;;;;;;;;;-143.90;100.00;55325.66;2092403;28;19925;-62
2022/03/16 03:32:18;;;;;;;;;;;;;;;-143.90;100.00;55293.91;2093265;28;20011;-63
2022/03/16 03:33:39;;;;;;;;;;;;;;;-143.90;100.00;55262.13;2091663;28;19927;-62
2022/03/16 03:34:59;;;;;;;;;;;;;;;-143.90;100.00;55274.03;2092916;28;19920;-62
2022/03/16 03:36:20;;;;;;;;;;;;;;;-143.90;100.00;55274.03;2093723;28;19925;-62
2022/03/16 03:37:41;;;;;;;;;;;;;;;-143.90;100.00;55274.03;2084183;28;19924;-63
2022/03/16 03:39:02;;;;;;;;;;;;;;;-143.90;100.00;55262.13;2090384;28;19927;-61
2022/03/16 03:40:22;;;;;;;;;;;;;;;-143.90;100.00;55262.13;2094154;28;19968;-62
2022/03/16 03:41:43;;;;;;;;;;;;;;;-143.90;100.00;55289.94;2090847;28;19979;-63
2022/03/16 03:43:05;;;;;;;;;;;;;;;-143.90;100.00;55258.16;2093889;28;19928;-61
2022/03/16 03:44:26;;;;;;;;;;;;;;;-143.90;100.00;55262.13;2094027;28;19927;-61
2022/03/16 03:45:46;;;;;;;;;;;;;;;-143.90;100.00;55266.09;2093223;28;19920;-63
2022/03/16 03:47:08;;;;;;;;;;;;;;;-143.90;100.00;55262.13;2093616;28;19920;-63
2022/03/16 03:48:29;;;;;;;;;;;;;;;-143.90;100.00;55266.09;2092348;28;19920;-63
2022/03/16 03:49:49;;;;;;;;;;;;;;;-143.90;100.00;55254.19;2092465;28;19959;-62
2022/03/16 03:51:10;;;;;;;;;;;;;;;-143.90;100.00;55297.88;2092519;28;19927;-63
2022/03/16 03:52:31;;;;;;;;;;;;;;;-143.90;100.00;55254.19;2093287;28;19931;-63
2022/03/16 03:53:51;;;;;;;;;;;;;;;-143.90;100.00;55246.25;2093827;28;19952;-63
2022/03/16 03:55:12;;;;;;;;;;;;;;;-143.90;100.00;55248.22;2091862;28;19920;-63
2022/03/16 03:56:33;;;;;;;;;;;;;;;-143.90;100.00;55289.94;2093406;28;19920;-62
2022/03/16 03:57:53;;;;;;;;;;;;;;;-143.90;100.00;55281.97;2093618;28;20330;-62
2022/03/16 03:59:15;;;;;;;;;;;;;;;-143.90;100.00;55270.06;2091640;28;20410;-63
2022/03/16 04:00:35;;;;;;;;;;;;;;;-143.90;100.00;55274.03;2092197;28;20030;-63
2022/03/16 04:01:56;;;;;;;;;;;;;;;-143.90;100.00;55317.72;2092502;28;19956;-61
2022/03/16 04:03:17;;;;;;;;;;;;;;;-143.90;100.00;55295.88;2093342;28;19925;-63
2022/03/16 04:04:37;;;;;;;;;;;;;;;-143.90;100.00;55297.88;2091254;28;19973;-62
2022/03/16 04:06:01;;;;;;;;;;;;;;;-143.90;100.00;55274.03;2092661;28;20148;-63
2022/03/16 04:07:22;;;;;;;;;;;;;;;-143.90;100.00;55281.97;2076067;28;19921;-63
2022/03/16 04:08:43;;;;;;;;;;;;;;;-143.90;100.00;55242.28;2087982;28;19920;-62
2022/03/16 04:10:04;;;;;;;;;;;;;;;-143.90;100.00;55274.03;2090134;28;19969;-62
2022/03/16 04:11:25;;;;;;;;;;;;;;;-143.90;100.00;55262.13;2091404;28;19959;-62
2022/03/16 04:12:45;;;;;;;;;;;;;;;-143.90;100.00;55281.97;2093571;28;19926;-63
2022/03/16 04:14:06;;;;;;;;;;;;;;;-143.90;100.00;55272.06;2092357;28;20717;-63
2022/03/16 04:15:27;;;;;;;;;;;;;;;-143.90;100.00;55289.94;2091956;28;19927;-63
2022/03/16 04:16:48;;;;;;;;;;;;;;;-143.90;100.00;55285.97;2093305;28;19956;-63
2022/03/16 04:18:08;;;;;;;;;;;;;;;-143.90;100.00;55295.88;2093554;28;19924;-62
2022/03/16 04:19:29;;;;;;;;;;;;;;;-143.90;100.00;55254.19;2093110;28;19920;-63
2022/03/16 04:20:49;;;;;;;;;;;;;;;-143.90;100.00;55309.78;2092971;28;19920;-61
2022/03/16 04:22:11;;;;;;;;;;;;;;;-143.90;100.00;55258.16;2091905;28;20680;-62
2022/03/16 04:23:32;;;;;;;;;;;;;;;-143.90;100.00;55270.06;2090651;28;19924;-63
2022/03/16 04:24:52;;;;;;;;;;;;;;;-143.90;100.00;55266.09;2092376;28;19929;-63
2022/03/16 04:26:13;;;;;;;;;;;;;;;-143.90;100.00;55274.03;2093371;28;20498;-63
2022/03/16 04:27:34;;;;;;;;;;;;;;;-143.90;100.00;55283.97;2095159;28;19927;-63
2022/03/16 04:28:54;;;;;;;;;;;;;;;-143.90;100.00;55260.16;2094582;28;19920;-63
2022/03/16 04:30:15;;;;;;;;;;;;;;;-143.90;100.00;55321.69;2092614;28;20403;-62
2022/03/16 04:31:36;;;;;;;;;;;;;;;-143.90;100.00;55262.13;2094707;28;19920;-61
2022/03/16 04:32:57;;;;;;;;;;;;;;;-143.90;100.00;55266.09;2094020;28;20514;-62
2022/03/16 04:34:18;;;;;;;;;;;;;;;-143.90;100.00;55246.25;2093833;28;19924;-61
2022/03/16 04:35:38;;;;;;;;;;;;;;;-143.90;100.00;55289.94;2094292;28;19925;-62
2022/03/16 04:36:59;;;;;;;;;;;;;;;-143.90;100.00;55297.88;2094806;28;19968;-62
2022/03/16 04:38:19;;;;;;;;;;;;;;;-143.90;100.00;55250.22;2093781;28;19927;-63
2022/03/16 04:39:40;;;;;;;;;;;;;;;-143.90;100.00;55309.78;2093966;28;20344;-63
2022/03/16 04:41:01;;;;;;;;;;;;;;;-143.90;100.00;55260.16;2094010;28;20292;-62
2022/03/16 04:42:22;;;;;;;;;;;;;;;-143.90;100.00;55285.97;2092974;28;20031;-63
2022/03/16 04:43:42;;;;;;;;;;;;;;;-143.90;100.00;55281.97;2094391;28;19912;-62
2022/03/16 04:45:03;;;;;;;;;;;;;;;-143.90;100.00;55293.91;2093483;28;19924;-62
2022/03/16 04:46:24;;;;;;;;;;;;;;;-143.90;100.00;55305.81;2093832;28;20330;-61
2022/03/16 04:47:44;;;;;;;;;;;;;;;-143.90;100.00;55266.09;2093823;28;20637;-63
2022/03/16 04:49:05;;;;;;;;;;;;;;;-143.90;100.00;55262.13;2093240;28;19920;-62
2022/03/16 04:50:26;;;;;;;;;;;;;;;-143.90;100.00;55262.13;2093271;28;20515;-62
2022/03/16 04:51:46;;;;;;;;;;;;;;;-143.90;100.00;55254.19;2093691;28;19920;-63
2022/03/16 04:53:07;;;;;;;;;;;;;;;-143.90;100.00;55305.81;2094297;28;19928;-61
2022/03/16 04:54:29;;;;;;;;;;;;;;;-143.90;100.00;55283.97;2093390;28;19931;-60
2022/03/16 04:55:49;;;;;;;;;;;;;;;-143.90;100.00;55281.97;2095311;28;20245;-62
2022/03/16 04:57:10;;;;;;;;;;;;;;;-143.90;100.00;55283.97;2094704;28;20101;-62
2022/03/16 04:58:31;;;;;;;;;;;;;;;-143.90;100.00;55285.97;2093645;28;19922;-61
2022/03/16 04:59:52;;;;;;;;;;;;;;;-143.90;100.00;55250.22;2093138;28;19925;-61
2022/03/16 05:01:13;;;;;;;;;;;;;;;-143.90;100.00;55287.94;2092718;28;19989;-60
2022/03/16 05:02:34;;;;;;;;;;;;;;;-143.90;100.00;55301.84;2094686;28;20454;-62
2022/03/16 05:03:54;;;;;;;;;;;;;;;-143.90;100.00;55293.91;2094199;28;19931;-61
2022/03/16 05:05:18;;;;;;;;;;;;;;;-143.90;100.00;55278.00;2092010;28;20651;-62
2022/03/16 05:06:38;;;;;;;;;;;;;;;-143.90;100.00;55272.06;2093107;28;19932;-63
2022/03/16 05:07:59;;;;;;;;;;;;;;;-143.90;100.00;55266.09;2094301;28;19920;-63
2022/03/16 05:09:20;;;;;;;;;;;;;;;-143.90;100.00;55274.03;2093536;28;19928;-62
2022/03/16 05:10:41;;;;;;;;;;;;;;;-143.90;100.00;55313.75;2092814;28;20031;-63
2022/03/16 05:12:01;;;;;;;;;;;;;;;-143.90;100.00;55291.91;2092152;28;19924;-62
2022/03/16 05:13:22;;;;;;;;;;;;;;;-143.90;100.00;55262.13;2093233;28;19928;-62
2022/03/16 05:14:43;;;;;;;;;;;;;;;-143.90;100.00;55297.88;2093333;28;19921;-62
2022/03/16 05:16:06;;;;;;;;;;;;;;;-143.90;100.00;55242.28;2093643;28;20031;-63
2022/03/16 05:17:26;;;;;;;;;;;;;;;-143.90;100.00;55305.81;2093449;28;19916;-62
2022/03/16 05:18:47;;;;;;;;;;;;;;;-143.90;100.00;55289.94;2092734;28;20441;-63
2022/03/16 05:20:08;;;;;;;;;;;;;;;-143.90;100.00;55305.81;2092886;28;19943;-63
2022/03/16 05:21:29;;;;;;;;;;;;;;;-143.90;100.00;55301.84;2094054;28;19920;-63
2022/03/16 05:22:51;;;;;;;;;;;;;;;-143.90;100.00;55266.09;2084722;28;19954;-62
2022/03/16 05:24:11;;;;;;;;;;;;;;;-143.90;100.00;55311.78;2090009;28;20048;-59
2022/03/16 05:25:32;;;;;;;;;;;;;;;-143.90;100.00;55289.94;2093582;28;19926;-62
2022/03/16 05:26:53;;;;;;;;;;;;;;;-143.90;100.00;55321.69;2093716;28;19920;-63
2022/03/16 05:28:13;;;;;;;;;;;;;;;-143.90;100.00;55289.94;2093674;28;19917;-64
2022/03/16 05:29:34;;;;;;;;;;;;;;;-143.90;100.00;55291.91;2085756;28;19924;-64
2022/03/16 05:30:55;;;;;;;;;;;;;;;-143.90;100.00;55305.81;2090684;28;19989;-62
2022/03/16 05:32:15;;;;;;;;;;;;;;;-143.90;100.00;55274.03;2093422;28;19920;-62
2022/03/16 05:33:36;;;;;;;;;;;;;;;-143.90;100.00;55297.88;2093281;28;19931;-62
2022/03/16 05:34:57;;;;;;;;;;;;;;;-143.90;100.00;55276.03;2093813;28;20483;-62
2022/03/16 05:36:17;;;;;;;;;;;;;;;-143.90;100.00;55258.16;2093093;28;19930;-62
2022/03/16 05:37:38;;;;;;;;;;;;;;;-143.90;100.00;55246.25;2093827;28;19924;-62
2022/03/16 05:38:59;;;;;;;;;;;;;;;-143.90;100.00;55317.72;2093711;28;19916;-63
2022/03/16 05:40:19;;;;;;;;;;;;;;;-143.90;100.00;55309.78;2092141;28;20746;-62
2022/03/16 05:41:40;;;;;;;;;;;;;;;-143.90;100.00;55272.06;2093985;28;20055;-63
2022/03/16 05:43:01;;;;;;;;;;;;;;;-143.90;100.00;55297.88;2094025;28;19972;-63
2022/03/16 05:44:21;;;;;;;;;;;;;;;-143.90;100.00;55309.78;2091856;28;19991;-63
2022/03/16 05:45:42;;;;;;;;;;;;;;;-143.90;100.00;55281.97;2092270;28;19921;-62
2022/03/16 05:47:06;;;;;;;;;;;;;;;-143.90;100.00;55303.81;2092580;28;19917;-64
2022/03/16 05:48:26;;;;;;;;;;;;;;;-143.90;100.00;55266.09;2092822;28;20414;-63
2022/03/16 05:49:48;;;;;;;;;;;;;;;-143.90;100.00;55256.16;2094010;28;19921;-63
2022/03/16 05:51:09;;;;;;;;;;;;;;;-143.90;100.00;55321.69;2085395;28;20402;-63
2022/03/16 05:52:31;;;;;;;;;;;;;;;-143.90;100.00;55270.06;2090644;28;19916;-63
2022/03/16 05:53:52;;;;;;;;;;;;;;;-143.90;100.00;55311.78;2092918;28;19920;-64
2022/03/16 05:55:13;;;;;;;;;;;;;;;-143.90;100.00;55297.88;2093969;28;19952;-62
2022/03/16 05:56:35;;;;;;;;;;;;;;;-143.90;100.00;55262.13;2092572;28;19994;-62
2022/03/16 05:57:55;;;;;;;;;;;;;;;-143.90;100.00;55289.94;2091723;28;19927;-62
2022/03/16 05:59:16;;;;;;;;;;;;;;;-143.90;100.00;55289.94;2093537;28;19916;-62
2022/03/16 06:00:40;;;;;;;;;;;;;;;-143.90;100.00;55297.88;2094436;28;19920;-61
2022/03/16 06:02:01;;;;;;;;;;;;;;;-143.90;100.00;55266.09;2092810;28;19917;-62
2022/03/16 06:03:22;;;;;;;;;;;;;;;-143.90;100.00;55262.13;2093722;28;20940;-62
2022/03/16 06:04:43;;;;;;;;;;;;;;;-143.90;100.00;55317.72;2092130;28;19923;-62
2022/03/16 06:06:05;;;;;;;;;;;;;;;-143.90;100.00;55268.09;2093535;28;19920;-62
2022/03/16 06:07:25;;;;;;;;;;;;;;;-143.90;100.00;55289.94;2083691;28;19923;-62
2022/03/16 06:08:46;;;;;;;;;;;;;;;-143.90;100.00;55297.88;2090991;28;19916;-62
2022/03/16 06:10:07;;;;;;;;;;;;;;;-143.90;100.00;55272.06;2094323;28;20740;-62
2022/03/16 06:11:29;;;;;;;;;;;;;;;-143.90;100.00;55309.78;2093488;28;20105;-63
2022/03/16 06:12:56;;;;;;;;;;;;;;;-143.90;100.00;55266.09;2094090;28;20292;-62
2022/03/16 06:14:17;;;;;;;;;;;;;;;-143.90;100.00;55266.09;2083729;28;20434;-62
2022/03/16 06:15:41;;;;;;;;;;;;;;;-143.90;100.00;55315.75;2089924;28;19931;-62
2022/03/16 06:17:02;;;;;;;;;;;;;;;-143.90;100.00;55313.75;2091710;28;20391;-63
2022/03/16 06:18:23;;;;;;;;;;;;;;;-143.90;100.00;55254.19;2091220;28;19917;-63
2022/03/16 06:19:44;;;;;;;;;;;;;;;-143.90;100.00;55280.00;2093374;28;20643;-62
2022/03/16 06:21:04;;;;;;;;;;;;;;;-143.90;100.00;55274.03;2093428;28;19916;-63
2022/03/16 06:22:25;;;;;;;;;;;;;;;-143.90;100.00;55270.06;2093020;28;19928;-63
2022/03/16 06:23:46;;;;;;;;;;;;;;;-143.90;100.00;55258.16;2082719;28;19921;-63
2022/03/16 06:25:07;;;;;;;;;;;;;;;-143.90;100.00;55281.97;2075267;28;19944;-62
2022/03/16 06:26:27;;;;;;;;;;;;;;;-143.90;100.00;55266.09;2077319;28;19928;-63
2022/03/16 06:27:48;;;;;;;;;;;;;;;-143.90;100.00;55309.78;2077197;28;20454;-61
2022/03/16 06:29:09;;;;;;;;;;;;;;;-143.90;100.00;55262.13;2077082;28;20385;-64
2022/03/16 06:30:30;;;;;;;;;;;;;;;-143.90;100.00;55281.97;2076622;28;19921;-63
2022/03/16 06:31:50;;;;;;;;;;;;;;;-143.90;100.00;55264.13;2076712;28;19924;-63
2022/03/16 06:33:11;;;;;;;;;;;;;;;-143.90;100.00;55309.78;2075963;28;20369;-61
2022/03/16 06:34:32;;;;;;;;;;;;;;;-143.90;100.00;55317.72;2076884;28;19917;-63
2022/03/16 06:35:52;;;;;;;;;;;;;;;-143.90;100.00;55305.81;2075866;28;20024;-64
2022/03/16 06:37:13;;;;;;;;;;;;;;;-143.90;100.00;55301.84;2076176;28;19931;-64
2022/03/16 06:38:34;;;;;;;;;;;;;;;-143.90;100.00;55258.16;2083025;28;19925;-64
2022/03/16 06:39:54;;;;;;;;;;;;;;;-143.90;100.00;55285.97;2080455;28;20988;-62
2022/03/16 06:41:15;;;;;;;;;;;;;;;-143.90;100.00;55281.97;2074615;28;19943;-63
2022/03/16 06:42:56;;;;;;;;;;;;;;;-143.90;100.00;55280.00;2075277;28;19917;-64
2022/03/16 06:44:17;;;;;;;;;;;;;;;-143.90;100.00;55297.88;2074922;28;19921;-63
2022/03/16 06:45:38;;;;;;;;;;;;;;;-143.90;100.00;55278.00;2075011;28;19921;-62